createdAt,value
2018-06-08T00:00:24.946Z,0
2018-06-08T00:01:26.571Z,0
2018-06-08T00:02:28.205Z,0
2018-06-08T00:03:29.830Z,0
2018-06-08T00:04:31.444Z,0
2018-06-08T00:05:33.066Z,0
2018-06-08T00:06:34.684Z,0
2018-06-08T00:07:36.306Z,0
2018-06-08T00:08:37.930Z,0
2018-06-08T00:09:39.541Z,0
2018-06-08T00:10:41.166Z,0
2018-06-08T00:11:42.784Z,0
2018-06-08T00:12:44.399Z,0
2018-06-08T00:13:46.026Z,0
2018-06-08T00:14:47.640Z,0
2018-06-08T00:15:49.259Z,0
2018-06-08T00:16:50.883Z,0
2018-06-08T00:17:52.498Z,0
2018-06-08T00:18:54.126Z,0
2018-06-08T00:19:55.747Z,0
2018-06-08T00:20:57.362Z,0
2018-06-08T00:21:58.986Z,0
2018-06-08T00:23:00.601Z,0
2018-06-08T00:24:02.221Z,0
2018-06-08T00:25:03.846Z,0
2018-06-08T00:26:05.466Z,0
2018-06-08T00:27:07.080Z,0
2018-06-08T00:28:08.700Z,0
2018-06-08T00:29:11.292Z,0
2018-06-08T00:30:12.907Z,0
2018-06-08T00:31:14.539Z,0
2018-06-08T00:32:16.157Z,0
2018-06-08T00:33:17.773Z,0
2018-06-08T00:34:19.395Z,0
2018-06-08T00:35:21.008Z,0
2018-06-08T00:36:22.630Z,0
2018-06-08T00:37:24.861Z,0
2018-06-08T00:38:26.477Z,0
2018-06-08T00:39:29.727Z,0
2018-06-08T00:40:31.339Z,0
2018-06-08T00:41:32.964Z,0
2018-06-08T00:42:34.581Z,0
2018-06-08T00:43:36.197Z,0
2018-06-08T00:44:37.820Z,0
2018-06-08T00:45:39.435Z,0
2018-06-08T00:46:41.055Z,0
2018-06-08T00:47:42.679Z,0
2018-06-08T00:48:44.293Z,0
2018-06-08T00:49:45.911Z,0
2018-06-08T00:50:47.536Z,0
2018-06-08T00:51:49.157Z,0
2018-06-08T00:52:50.776Z,0
2018-06-08T00:53:52.391Z,0
2018-06-08T00:54:54.013Z,0
2018-06-08T00:55:55.635Z,0
2018-06-08T00:56:57.259Z,0
2018-06-08T00:57:58.880Z,0
2018-06-08T00:59:00.500Z,0
2018-06-08T01:00:02.196Z,0
2018-06-08T01:01:03.812Z,0
2018-06-08T01:02:05.435Z,0
2018-06-08T01:03:07.053Z,0
2018-06-08T01:04:08.669Z,0
2018-06-08T01:05:10.291Z,0
2018-06-08T01:06:11.906Z,0
2018-06-08T01:07:13.524Z,0
2018-06-08T01:08:15.154Z,0
2018-06-08T01:09:16.769Z,0
2018-06-08T01:10:18.390Z,0
2018-06-08T01:11:20.003Z,0
2018-06-08T01:12:21.624Z,0
2018-06-08T01:13:23.240Z,0
2018-06-08T01:14:24.866Z,0
2018-06-08T01:15:26.487Z,0
2018-06-08T01:16:28.101Z,0
2018-06-08T01:17:29.725Z,0
2018-06-08T01:18:31.337Z,0
2018-06-08T01:19:32.959Z,0
2018-06-08T01:20:34.576Z,0
2018-06-08T01:21:36.194Z,0
2018-06-08T01:22:37.834Z,0
2018-06-08T01:23:39.428Z,0
2018-06-08T01:24:41.053Z,0
2018-06-08T01:25:42.672Z,0
2018-06-08T01:26:44.289Z,0
2018-06-08T01:27:45.924Z,0
2018-06-08T01:28:47.552Z,0
2018-06-08T01:29:49.167Z,0
2018-06-08T01:30:50.786Z,0
2018-06-08T01:31:52.400Z,0
2018-06-08T01:32:54.023Z,0
2018-06-08T01:33:55.637Z,0
2018-06-08T01:34:57.261Z,0
2018-06-08T01:35:58.876Z,0
2018-06-08T01:37:00.501Z,0
2018-06-08T01:38:02.113Z,0
2018-06-08T01:39:03.735Z,0
2018-06-08T01:40:05.352Z,0
2018-06-08T01:41:06.972Z,0
2018-06-08T01:42:08.587Z,0
2018-06-08T01:43:10.210Z,0
2018-06-08T01:44:11.830Z,0
2018-06-08T01:45:13.446Z,0
2018-06-08T01:46:15.070Z,0
2018-06-08T01:47:16.682Z,0
2018-06-08T01:48:18.298Z,0
2018-06-08T01:49:19.921Z,0
2018-06-08T01:50:21.539Z,0
2018-06-08T01:51:23.163Z,0
2018-06-08T01:52:24.778Z,0
2018-06-08T01:53:26.414Z,0
2018-06-08T01:54:28.016Z,0
2018-06-08T01:55:29.639Z,0
2018-06-08T01:56:31.252Z,0
2018-06-08T01:57:32.879Z,0
2018-06-08T01:58:34.495Z,0
2018-06-08T01:59:36.116Z,0
2018-06-08T02:00:37.738Z,0
2018-06-08T02:01:39.354Z,0
2018-06-08T02:02:40.977Z,0
2018-06-08T02:03:42.591Z,0
2018-06-08T02:04:44.215Z,0
2018-06-08T02:05:45.832Z,0
2018-06-08T02:06:47.449Z,0
2018-06-08T02:07:49.069Z,0
2018-06-08T02:08:50.689Z,0
2018-06-08T02:09:52.312Z,0
2018-06-08T02:10:53.925Z,0
2018-06-08T02:11:55.552Z,0
2018-06-08T02:12:57.171Z,0
2018-06-08T02:13:58.784Z,0
2018-06-08T02:15:00.404Z,0
2018-06-08T02:16:02.028Z,0
2018-06-08T02:17:03.640Z,0
2018-06-08T02:18:05.269Z,0
2018-06-08T02:19:06.886Z,0
2018-06-08T02:20:08.502Z,0
2018-06-08T02:21:10.123Z,0
2018-06-08T02:22:11.738Z,0
2018-06-08T02:23:13.355Z,0
2018-06-08T02:24:14.972Z,0
2018-06-08T02:25:16.603Z,0
2018-06-08T02:26:18.220Z,0
2018-06-08T02:27:19.840Z,0
2018-06-08T02:28:21.461Z,0
2018-06-08T02:29:23.079Z,0
2018-06-08T02:30:24.699Z,0
2018-06-08T02:31:26.353Z,0
2018-06-08T02:32:27.935Z,0
2018-06-08T02:33:29.561Z,0
2018-06-08T02:34:31.177Z,0
2018-06-08T02:35:32.795Z,0
2018-06-08T02:36:34.419Z,0
2018-06-08T02:37:36.036Z,0
2018-06-08T02:38:37.655Z,0
2018-06-08T02:39:39.276Z,0
2018-06-08T02:40:40.900Z,0
2018-06-08T02:41:42.522Z,0
2018-06-08T02:42:44.141Z,0
2018-06-08T02:43:45.791Z,0
2018-06-08T02:44:47.405Z,0
2018-06-08T02:45:49.022Z,0
2018-06-08T02:46:50.643Z,0
2018-06-08T02:47:52.265Z,0
2018-06-08T02:48:53.886Z,0
2018-06-08T02:49:55.507Z,0
2018-06-08T02:50:57.122Z,0
2018-06-08T02:51:58.742Z,0
2018-06-08T02:53:00.361Z,0
2018-06-08T02:54:01.987Z,0
2018-06-08T02:55:03.600Z,0
2018-06-08T02:56:05.222Z,0
2018-06-08T02:57:06.837Z,0
2018-06-08T02:58:08.458Z,0
2018-06-08T02:59:10.078Z,0
2018-06-08T03:00:11.694Z,0
2018-06-08T03:01:13.319Z,0
2018-06-08T03:02:15.489Z,0
2018-06-08T03:03:17.129Z,0
2018-06-08T03:04:18.749Z,0
2018-06-08T03:05:20.375Z,0
2018-06-08T03:06:21.986Z,0
2018-06-08T03:07:23.605Z,0
2018-06-08T03:08:25.224Z,0
2018-06-08T03:09:26.850Z,0
2018-06-08T03:10:28.472Z,0
2018-06-08T03:11:30.090Z,0
2018-06-08T03:12:31.712Z,5
2018-06-08T03:13:33.335Z,5
2018-06-08T03:14:34.958Z,5
2018-06-08T03:15:36.580Z,5
2018-06-08T03:16:38.205Z,5
2018-06-08T03:17:39.822Z,5
2018-06-08T03:18:41.443Z,5
2018-06-08T03:19:43.058Z,5
2018-06-08T03:20:44.682Z,11
2018-06-08T03:21:46.301Z,11
2018-06-08T03:22:47.924Z,11
2018-06-08T03:23:49.553Z,11
2018-06-08T03:24:51.171Z,11
2018-06-08T03:25:52.798Z,11
2018-06-08T03:26:54.419Z,11
2018-06-08T03:27:56.036Z,16
2018-06-08T03:28:57.662Z,16
2018-06-08T03:29:59.287Z,16
2018-06-08T03:31:00.914Z,22
2018-06-08T03:32:02.537Z,22
2018-06-08T03:33:04.158Z,22
2018-06-08T03:34:05.778Z,22
2018-06-08T03:35:07.400Z,28
2018-06-08T03:36:09.024Z,28
2018-06-08T03:37:10.650Z,28
2018-06-08T03:38:12.270Z,33
2018-06-08T03:39:13.896Z,33
2018-06-08T03:40:15.531Z,33
2018-06-08T03:41:17.134Z,33
2018-06-08T03:42:18.761Z,39
2018-06-08T03:43:20.385Z,39
2018-06-08T03:44:22.012Z,39
2018-06-08T03:45:23.633Z,45
2018-06-08T03:46:25.253Z,45
2018-06-08T03:47:26.879Z,45
2018-06-08T03:48:28.499Z,50
2018-06-08T03:49:30.124Z,50
2018-06-08T03:50:31.776Z,56
2018-06-08T03:51:33.370Z,56
2018-06-08T03:52:34.993Z,56
2018-06-08T03:53:36.620Z,61
2018-06-08T03:54:38.236Z,61
2018-06-08T03:55:39.863Z,67
2018-06-08T03:56:41.484Z,67
2018-06-08T03:57:43.106Z,67
2018-06-08T03:58:44.733Z,73
2018-06-08T03:59:46.364Z,73
2018-06-08T04:00:47.991Z,73
2018-06-08T04:01:49.631Z,73
2018-06-08T04:02:51.248Z,73
2018-06-08T04:03:52.872Z,73
2018-06-08T04:04:54.495Z,73
2018-06-08T04:05:56.118Z,78
2018-06-08T04:06:57.739Z,78
2018-06-08T04:07:59.365Z,78
2018-06-08T04:09:00.988Z,78
2018-06-08T04:10:03.424Z,78
2018-06-08T04:11:05.037Z,78
2018-06-08T04:12:06.663Z,78
2018-06-08T04:13:08.281Z,78
2018-06-08T04:14:09.908Z,84
2018-06-08T04:15:11.538Z,84
2018-06-08T04:16:13.161Z,84
2018-06-08T04:17:14.780Z,84
2018-06-08T04:18:16.402Z,90
2018-06-08T04:19:18.025Z,90
2018-06-08T04:20:19.647Z,90
2018-06-08T04:21:21.267Z,90
2018-06-08T04:22:22.897Z,90
2018-06-08T04:23:24.512Z,95
2018-06-08T04:24:26.136Z,95
2018-06-08T04:25:27.758Z,101
2018-06-08T04:26:29.386Z,106
2018-06-08T04:27:31.008Z,112
2018-06-08T04:28:32.634Z,118
2018-06-08T04:29:34.266Z,118
2018-06-08T04:30:35.884Z,123
2018-06-08T04:31:37.514Z,123
2018-06-08T04:32:39.138Z,129
2018-06-08T04:33:40.767Z,129
2018-06-08T04:34:42.385Z,129
2018-06-08T04:35:44.012Z,129
2018-06-08T04:36:45.639Z,135
2018-06-08T04:37:47.269Z,135
2018-06-08T04:38:48.894Z,140
2018-06-08T04:39:50.514Z,151
2018-06-08T04:40:52.140Z,163
2018-06-08T04:41:53.771Z,168
2018-06-08T04:42:55.390Z,180
2018-06-08T04:43:57.019Z,185
2018-06-08T04:44:58.644Z,191
2018-06-08T04:46:00.267Z,202
2018-06-08T04:47:01.894Z,208
2018-06-08T04:48:03.519Z,213
2018-06-08T04:49:05.145Z,213
2018-06-08T04:50:06.770Z,219
2018-06-08T04:51:08.397Z,219
2018-06-08T04:52:10.019Z,225
2018-06-08T04:53:11.649Z,219
2018-06-08T04:54:13.275Z,219
2018-06-08T04:55:14.895Z,219
2018-06-08T04:56:16.525Z,219
2018-06-08T04:57:18.152Z,213
2018-06-08T04:58:19.774Z,213
2018-06-08T04:59:21.396Z,208
2018-06-08T05:00:23.024Z,202
2018-06-08T05:01:24.648Z,202
2018-06-08T05:02:26.279Z,202
2018-06-08T05:03:27.916Z,196
2018-06-08T05:04:29.539Z,202
2018-06-08T05:05:31.169Z,202
2018-06-08T05:06:32.787Z,202
2018-06-08T05:07:34.412Z,202
2018-06-08T05:08:36.034Z,202
2018-06-08T05:09:37.677Z,208
2018-06-08T05:10:39.287Z,208
2018-06-08T05:11:40.910Z,208
2018-06-08T05:12:42.541Z,219
2018-06-08T05:13:44.161Z,219
2018-06-08T05:14:45.789Z,230
2018-06-08T05:15:47.428Z,236
2018-06-08T05:16:49.047Z,241
2018-06-08T05:17:50.675Z,253
2018-06-08T05:18:52.298Z,264
2018-06-08T05:19:53.922Z,270
2018-06-08T05:20:55.549Z,264
2018-06-08T05:21:57.172Z,264
2018-06-08T05:22:58.801Z,275
2018-06-08T05:24:00.425Z,281
2018-06-08T05:25:02.056Z,292
2018-06-08T05:26:03.682Z,292
2018-06-08T05:27:05.310Z,298
2018-06-08T05:28:06.928Z,309
2018-06-08T05:29:08.556Z,309
2018-06-08T05:30:10.179Z,309
2018-06-08T05:31:11.802Z,309
2018-06-08T05:32:13.423Z,309
2018-06-08T05:33:15.055Z,309
2018-06-08T05:34:16.687Z,303
2018-06-08T05:35:18.304Z,298
2018-06-08T05:36:19.931Z,292
2018-06-08T05:37:21.624Z,292
2018-06-08T05:38:23.178Z,292
2018-06-08T05:39:24.809Z,292
2018-06-08T05:40:26.435Z,298
2018-06-08T05:41:28.063Z,292
2018-06-08T05:42:29.683Z,292
2018-06-08T05:43:31.311Z,292
2018-06-08T05:44:33.031Z,292
2018-06-08T05:45:34.655Z,292
2018-06-08T05:46:36.282Z,292
2018-06-08T05:47:37.912Z,292
2018-06-08T05:48:39.537Z,292
2018-06-08T05:49:41.161Z,292
2018-06-08T05:50:42.788Z,298
2018-06-08T05:51:44.411Z,303
2018-06-08T05:52:46.039Z,270
2018-06-08T05:53:47.695Z,315
2018-06-08T05:54:49.293Z,337
2018-06-08T05:55:50.925Z,343
2018-06-08T05:56:52.548Z,354
2018-06-08T05:57:54.177Z,354
2018-06-08T05:58:55.808Z,360
2018-06-08T05:59:57.432Z,371
2018-06-08T06:00:59.110Z,382
2018-06-08T06:02:00.741Z,399
2018-06-08T06:03:02.371Z,416
2018-06-08T06:04:03.991Z,438
2018-06-08T06:05:05.613Z,450
2018-06-08T06:06:07.245Z,472
2018-06-08T06:07:08.866Z,489
2018-06-08T06:08:10.499Z,506
2018-06-08T06:09:12.124Z,523
2018-06-08T06:10:13.750Z,534
2018-06-08T06:11:15.370Z,551
2018-06-08T06:12:16.994Z,562
2018-06-08T06:13:18.625Z,573
2018-06-08T06:14:20.258Z,585
2018-06-08T06:15:21.875Z,590
2018-06-08T06:16:23.505Z,607
2018-06-08T06:17:25.128Z,624
2018-06-08T06:18:26.760Z,641
2018-06-08T06:19:28.382Z,675
2018-06-08T06:20:30.015Z,686
2018-06-08T06:21:31.636Z,680
2018-06-08T06:22:33.262Z,691
2018-06-08T06:23:34.891Z,703
2018-06-08T06:24:36.515Z,703
2018-06-08T06:25:38.139Z,708
2018-06-08T06:26:39.769Z,703
2018-06-08T06:27:41.390Z,703
2018-06-08T06:28:43.023Z,708
2018-06-08T06:29:44.649Z,720
2018-06-08T06:30:46.276Z,748
2018-06-08T06:31:47.910Z,765
2018-06-08T06:32:49.530Z,787
2018-06-08T06:33:51.155Z,770
2018-06-08T06:34:52.787Z,860
2018-06-08T06:35:54.413Z,928
2018-06-08T06:36:56.045Z,883
2018-06-08T06:37:57.669Z,883
2018-06-08T06:38:59.305Z,950
2018-06-08T06:40:00.943Z,990
2018-06-08T06:41:02.567Z,911
2018-06-08T06:42:04.199Z,781
2018-06-08T06:43:05.831Z,753
2018-06-08T06:44:07.447Z,781
2018-06-08T06:45:09.079Z,855
2018-06-08T06:46:10.707Z,973
2018-06-08T06:47:12.336Z,1023
2018-06-08T06:48:13.969Z,1164
2018-06-08T06:49:15.594Z,1215
2018-06-08T06:50:17.227Z,1198
2018-06-08T06:51:18.858Z,1130
2018-06-08T06:52:20.487Z,1085
2018-06-08T06:53:22.118Z,1096
2018-06-08T06:54:23.748Z,1119
2018-06-08T06:55:25.373Z,1147
2018-06-08T06:56:27.007Z,1141
2018-06-08T06:57:28.636Z,1113
2018-06-08T06:58:30.269Z,984
2018-06-08T06:59:31.898Z,956
2018-06-08T07:00:33.527Z,956
2018-06-08T07:01:35.157Z,990
2018-06-08T07:02:36.793Z,950
2018-06-08T07:03:38.408Z,956
2018-06-08T07:04:40.043Z,945
2018-06-08T07:05:41.666Z,933
2018-06-08T07:06:43.295Z,950
2018-06-08T07:07:44.930Z,950
2018-06-08T07:08:46.576Z,950
2018-06-08T07:09:48.179Z,933
2018-06-08T07:10:49.814Z,939
2018-06-08T07:11:51.438Z,888
2018-06-08T07:12:53.062Z,888
2018-06-08T07:13:54.694Z,877
2018-06-08T07:14:56.326Z,883
2018-06-08T07:15:57.956Z,900
2018-06-08T07:16:59.582Z,905
2018-06-08T07:18:01.210Z,916
2018-06-08T07:19:02.841Z,950
2018-06-08T07:20:04.468Z,978
2018-06-08T07:21:06.102Z,1035
2018-06-08T07:22:07.735Z,1164
2018-06-08T07:23:09.362Z,1220
2018-06-08T07:24:10.992Z,1288
2018-06-08T07:25:12.622Z,1333
2018-06-08T07:26:14.249Z,1428
2018-06-08T07:27:15.881Z,1552
2018-06-08T07:28:17.558Z,1766
2018-06-08T07:29:19.140Z,1828
2018-06-08T07:30:20.768Z,1878
2018-06-08T07:31:22.403Z,1878
2018-06-08T07:32:24.032Z,1822
2018-06-08T07:33:25.657Z,1822
2018-06-08T07:34:27.293Z,1771
2018-06-08T07:35:28.925Z,1743
2018-06-08T07:36:30.556Z,1704
2018-06-08T07:37:32.184Z,1794
2018-06-08T07:38:33.811Z,1715
2018-06-08T07:39:35.438Z,1524
2018-06-08T07:40:37.073Z,1783
2018-06-08T07:41:38.706Z,1260
2018-06-08T07:42:40.334Z,1226
2018-06-08T07:43:41.974Z,1141
2018-06-08T07:44:43.599Z,1771
2018-06-08T07:45:45.225Z,1012
2018-06-08T07:46:46.902Z,1046
2018-06-08T07:47:48.492Z,1203
2018-06-08T07:48:50.122Z,1209
2018-06-08T07:49:51.750Z,1153
2018-06-08T07:50:53.388Z,1029
2018-06-08T07:51:55.016Z,928
2018-06-08T07:52:56.644Z,810
2018-06-08T07:53:58.278Z,703
2018-06-08T07:54:59.904Z,641
2018-06-08T07:56:01.582Z,607
2018-06-08T07:57:03.167Z,579
2018-06-08T07:58:04.792Z,545
2018-06-08T07:59:06.417Z,523
2018-06-08T08:00:08.044Z,506
2018-06-08T08:01:09.742Z,489
2018-06-08T08:02:11.301Z,489
2018-06-08T08:03:12.932Z,483
2018-06-08T08:04:14.559Z,483
2018-06-08T08:05:16.185Z,478
2018-06-08T08:06:17.814Z,455
2018-06-08T08:07:19.439Z,438
2018-06-08T08:08:21.070Z,427
2018-06-08T08:09:22.693Z,427
2018-06-08T08:10:24.322Z,438
2018-06-08T08:11:25.946Z,461
2018-06-08T08:12:27.578Z,489
2018-06-08T08:13:29.199Z,506
2018-06-08T08:14:30.825Z,517
2018-06-08T08:15:32.448Z,528
2018-06-08T08:16:34.073Z,545
2018-06-08T08:17:35.703Z,556
2018-06-08T08:18:37.325Z,590
2018-06-08T08:19:38.959Z,618
2018-06-08T08:20:40.578Z,646
2018-06-08T08:21:42.205Z,669
2018-06-08T08:22:43.827Z,669
2018-06-08T08:23:45.458Z,663
2018-06-08T08:24:47.088Z,658
2018-06-08T08:25:48.755Z,635
2018-06-08T08:26:50.950Z,601
2018-06-08T08:27:52.563Z,551
2018-06-08T08:28:54.194Z,517
2018-06-08T08:29:55.814Z,472
2018-06-08T08:30:57.439Z,433
2018-06-08T08:31:59.074Z,399
2018-06-08T08:33:00.690Z,360
2018-06-08T08:34:02.323Z,331
2018-06-08T08:35:03.947Z,315
2018-06-08T08:36:05.576Z,303
2018-06-08T08:37:07.196Z,303
2018-06-08T08:38:08.822Z,309
2018-06-08T08:39:10.451Z,309
2018-06-08T08:40:12.076Z,320
2018-06-08T08:41:13.704Z,331
2018-06-08T08:42:15.322Z,360
2018-06-08T08:43:16.950Z,376
2018-06-08T08:44:18.574Z,405
2018-06-08T08:45:20.203Z,416
2018-06-08T08:46:21.828Z,427
2018-06-08T08:47:23.455Z,450
2018-06-08T08:48:25.085Z,461
2018-06-08T08:49:26.709Z,478
2018-06-08T08:50:28.332Z,489
2018-06-08T08:51:29.993Z,534
2018-06-08T08:52:31.587Z,562
2018-06-08T08:53:33.213Z,613
2018-06-08T08:54:34.838Z,658
2018-06-08T08:55:36.468Z,708
2018-06-08T08:56:38.092Z,765
2018-06-08T08:57:39.715Z,765
2018-06-08T08:58:41.339Z,725
2018-06-08T08:59:42.968Z,714
2018-06-08T09:00:44.590Z,725
2018-06-08T09:01:46.224Z,748
2018-06-08T09:02:47.849Z,720
2018-06-08T09:03:49.471Z,669
2018-06-08T09:04:51.140Z,601
2018-06-08T09:05:52.771Z,551
2018-06-08T09:06:54.390Z,500
2018-06-08T09:07:56.022Z,500
2018-06-08T09:08:57.644Z,506
2018-06-08T09:09:59.272Z,517
2018-06-08T09:11:00.898Z,506
2018-06-08T09:12:02.521Z,483
2018-06-08T09:13:04.149Z,450
2018-06-08T09:14:05.778Z,433
2018-06-08T09:15:07.400Z,427
2018-06-08T09:16:09.029Z,438
2018-06-08T09:17:10.655Z,450
2018-06-08T09:18:12.279Z,455
2018-06-08T09:19:13.906Z,455
2018-06-08T09:20:15.573Z,455
2018-06-08T09:21:17.159Z,455
2018-06-08T09:22:18.782Z,450
2018-06-08T09:23:20.411Z,444
2018-06-08T09:24:22.039Z,444
2018-06-08T09:25:23.659Z,410
2018-06-08T09:26:25.287Z,365
2018-06-08T09:27:26.989Z,348
2018-06-08T09:28:28.534Z,354
2018-06-08T09:29:30.162Z,360
2018-06-08T09:30:31.785Z,348
2018-06-08T09:31:33.414Z,343
2018-06-08T09:32:35.044Z,331
2018-06-08T09:33:36.666Z,320
2018-06-08T09:34:38.293Z,315
2018-06-08T09:35:39.915Z,309
2018-06-08T09:36:41.542Z,309
2018-06-08T09:37:43.166Z,309
2018-06-08T09:38:44.791Z,309
2018-06-08T09:39:46.418Z,315
2018-06-08T09:40:48.041Z,309
2018-06-08T09:41:49.662Z,309
2018-06-08T09:42:51.287Z,315
2018-06-08T09:43:52.912Z,320
2018-06-08T09:44:54.538Z,326
2018-06-08T09:45:56.213Z,331
2018-06-08T09:46:57.800Z,343
2018-06-08T09:47:59.423Z,354
2018-06-08T09:49:01.048Z,360
2018-06-08T09:50:02.672Z,371
2018-06-08T09:51:04.299Z,382
2018-06-08T09:52:05.921Z,393
2018-06-08T09:53:07.551Z,410
2018-06-08T09:54:09.177Z,427
2018-06-08T09:55:10.798Z,438
2018-06-08T09:56:12.430Z,444
2018-06-08T09:57:14.051Z,450
2018-06-08T09:58:15.683Z,461
2018-06-08T09:59:17.305Z,472
2018-06-08T10:00:18.930Z,466
2018-06-08T10:01:20.558Z,438
2018-06-08T10:02:22.180Z,433
2018-06-08T10:03:23.803Z,450
2018-06-08T10:04:25.431Z,483
2018-06-08T10:05:27.053Z,523
2018-06-08T10:06:28.683Z,568
2018-06-08T10:07:30.313Z,590
2018-06-08T10:08:31.925Z,585
2018-06-08T10:09:33.553Z,579
2018-06-08T10:10:35.174Z,562
2018-06-08T10:11:36.809Z,540
2018-06-08T10:12:38.426Z,511
2018-06-08T10:13:40.048Z,478
2018-06-08T10:14:41.675Z,466
2018-06-08T10:15:43.299Z,495
2018-06-08T10:16:44.921Z,517
2018-06-08T10:17:46.549Z,551
2018-06-08T10:18:48.170Z,585
2018-06-08T10:19:49.798Z,596
2018-06-08T10:20:51.419Z,646
2018-06-08T10:21:53.100Z,697
2018-06-08T10:22:54.669Z,748
2018-06-08T10:23:56.301Z,815
2018-06-08T10:24:57.914Z,894
2018-06-08T10:25:59.547Z,956
2018-06-08T10:27:01.168Z,1006
2018-06-08T10:28:02.795Z,1023
2018-06-08T10:29:04.439Z,1006
2018-06-08T10:30:06.048Z,1006
2018-06-08T10:31:07.677Z,1057
2018-06-08T10:32:09.303Z,1074
2018-06-08T10:33:10.926Z,1080
2018-06-08T10:34:12.555Z,1068
2018-06-08T10:35:14.182Z,1023
2018-06-08T10:36:15.808Z,967
2018-06-08T10:37:17.436Z,900
2018-06-08T10:38:19.063Z,843
2018-06-08T10:39:20.684Z,815
2018-06-08T10:40:22.303Z,804
2018-06-08T10:41:23.933Z,815
2018-06-08T10:42:25.554Z,826
2018-06-08T10:43:27.181Z,838
2018-06-08T10:44:28.801Z,871
2018-06-08T10:45:30.429Z,900
2018-06-08T10:46:32.055Z,933
2018-06-08T10:47:33.683Z,945
2018-06-08T10:48:35.311Z,945
2018-06-08T10:49:36.932Z,916
2018-06-08T10:50:38.563Z,905
2018-06-08T10:51:40.184Z,866
2018-06-08T10:52:41.806Z,810
2018-06-08T10:53:43.434Z,759
2018-06-08T10:54:45.062Z,686
2018-06-08T10:55:46.682Z,646
2018-06-08T10:56:48.310Z,579
2018-06-08T10:57:49.933Z,523
2018-06-08T10:58:51.556Z,517
2018-06-08T10:59:53.187Z,489
2018-06-08T11:00:54.807Z,483
2018-06-08T11:01:56.429Z,455
2018-06-08T11:02:58.057Z,427
2018-06-08T11:03:59.687Z,427
2018-06-08T11:05:01.314Z,433
2018-06-08T11:06:02.934Z,483
2018-06-08T11:07:04.558Z,562
2018-06-08T11:08:06.182Z,534
2018-06-08T11:09:07.808Z,478
2018-06-08T11:10:09.433Z,438
2018-06-08T11:11:11.056Z,410
2018-06-08T11:12:12.685Z,421
2018-06-08T11:13:14.308Z,483
2018-06-08T11:14:15.927Z,579
2018-06-08T11:15:17.550Z,658
2018-06-08T11:16:19.178Z,663
2018-06-08T11:17:20.797Z,624
2018-06-08T11:18:22.427Z,556
2018-06-08T11:19:24.049Z,511
2018-06-08T11:20:25.674Z,523
2018-06-08T11:21:27.292Z,551
2018-06-08T11:22:28.918Z,573
2018-06-08T11:23:30.544Z,613
2018-06-08T11:24:32.167Z,720
2018-06-08T11:25:33.797Z,860
2018-06-08T11:26:35.423Z,995
2018-06-08T11:27:37.052Z,1057
2018-06-08T11:28:38.677Z,1119
2018-06-08T11:29:40.303Z,1130
2018-06-08T11:30:41.927Z,1181
2018-06-08T11:31:43.551Z,1293
2018-06-08T11:32:45.178Z,1462
2018-06-08T11:33:46.810Z,1620
2018-06-08T11:34:48.433Z,1766
2018-06-08T11:35:50.057Z,1867
2018-06-08T11:36:51.687Z,1783
2018-06-08T11:37:53.319Z,1777
2018-06-08T11:38:54.946Z,1749
2018-06-08T11:39:56.576Z,1698
2018-06-08T11:40:58.199Z,1603
2018-06-08T11:41:59.835Z,1518
2018-06-08T11:43:01.476Z,1468
2018-06-08T11:44:03.085Z,1344
2018-06-08T11:45:04.711Z,1141
2018-06-08T11:46:06.342Z,1001
2018-06-08T11:47:07.971Z,1018
2018-06-08T11:48:09.599Z,1080
2018-06-08T11:49:11.230Z,1344
2018-06-08T11:50:12.859Z,1468
2018-06-08T11:51:14.489Z,1541
2018-06-08T11:52:16.125Z,1558
2018-06-08T11:53:17.800Z,1389
2018-06-08T11:54:19.385Z,1378
2018-06-08T11:55:21.019Z,1518
2018-06-08T11:56:22.646Z,1749
2018-06-08T11:57:24.269Z,2025
2018-06-08T11:58:25.907Z,2182
2018-06-08T11:59:27.533Z,2570
2018-06-08T12:00:29.168Z,2311
2018-06-08T12:01:30.794Z,2576
2018-06-08T12:02:32.430Z,3228
2018-06-08T12:03:34.054Z,2148
2018-06-08T12:04:35.679Z,2289
2018-06-08T12:05:37.313Z,3048
2018-06-08T12:06:38.942Z,3515
2018-06-08T12:07:40.575Z,3251
2018-06-08T12:08:42.211Z,3076
2018-06-08T12:09:43.843Z,2851
2018-06-08T12:10:45.469Z,3330
2018-06-08T12:11:47.109Z,1906
2018-06-08T12:12:48.734Z,1811
2018-06-08T12:13:50.369Z,2587
2018-06-08T12:14:52.005Z,1783
2018-06-08T12:15:53.635Z,1873
2018-06-08T12:16:55.263Z,2193
2018-06-08T12:17:56.898Z,1845
2018-06-08T12:18:58.531Z,1850
2018-06-08T12:20:00.157Z,2188
2018-06-08T12:21:01.796Z,2373
2018-06-08T12:22:03.429Z,2328
2018-06-08T12:23:05.063Z,2531
2018-06-08T12:24:06.737Z,3071
2018-06-08T12:25:08.326Z,2857
2018-06-08T12:26:09.954Z,2773
2018-06-08T12:27:11.588Z,2148
2018-06-08T12:28:13.225Z,1687
2018-06-08T12:29:14.855Z,1445
2018-06-08T12:30:16.490Z,1338
2018-06-08T12:31:18.127Z,1316
2018-06-08T12:32:19.753Z,1333
2018-06-08T12:33:21.391Z,1350
2018-06-08T12:34:23.023Z,1389
2018-06-08T12:35:24.654Z,1434
2018-06-08T12:36:26.287Z,1468
2018-06-08T12:37:27.918Z,1546
2018-06-08T12:38:29.557Z,1738
2018-06-08T12:39:31.192Z,2036
2018-06-08T12:40:32.815Z,2351
2018-06-08T12:41:34.454Z,2795
2018-06-08T12:42:36.083Z,4190
2018-06-08T12:43:37.774Z,4539
2018-06-08T12:44:39.353Z,4353
2018-06-08T12:45:40.984Z,5276
2018-06-08T12:46:42.618Z,5062
2018-06-08T12:47:44.252Z,4050
2018-06-08T12:48:45.882Z,3138
2018-06-08T12:49:47.517Z,3926
2018-06-08T12:50:49.148Z,3729
2018-06-08T12:51:50.782Z,4483
2018-06-08T12:52:52.421Z,4719
2018-06-08T12:53:54.060Z,4044
2018-06-08T12:54:55.691Z,3701
2018-06-08T12:55:57.331Z,3920
2018-06-08T12:56:58.959Z,5731
2018-06-08T12:58:00.592Z,3549
2018-06-08T12:59:02.230Z,2913
2018-06-08T13:00:03.867Z,2559
2018-06-08T13:01:05.504Z,2143
2018-06-08T13:02:07.133Z,1957
2018-06-08T13:03:08.809Z,1665
2018-06-08T13:04:10.408Z,1513
2018-06-08T13:05:12.043Z,1451
2018-06-08T13:06:13.686Z,1451
2018-06-08T13:07:15.317Z,1490
2018-06-08T13:08:16.949Z,1597
2018-06-08T13:09:18.585Z,1760
2018-06-08T13:10:20.214Z,1940
2018-06-08T13:11:21.854Z,2430
2018-06-08T13:12:23.496Z,3532
2018-06-08T13:13:25.126Z,2542
2018-06-08T13:14:26.764Z,2103
2018-06-08T13:15:28.399Z,2115
2018-06-08T13:16:30.035Z,1980
2018-06-08T13:17:31.670Z,2092
2018-06-08T13:18:33.310Z,2340
2018-06-08T13:19:34.951Z,3796
2018-06-08T13:20:36.577Z,3673
2018-06-08T13:21:38.209Z,2958
2018-06-08T13:22:39.838Z,3661
2018-06-08T13:23:41.476Z,3453
2018-06-08T13:24:43.104Z,3791
2018-06-08T13:25:44.747Z,3915
2018-06-08T13:26:46.379Z,3026
2018-06-08T13:27:48.011Z,1929
2018-06-08T13:28:49.651Z,1788
2018-06-08T13:29:51.281Z,1856
2018-06-08T13:30:52.912Z,2131
2018-06-08T13:31:54.547Z,2075
2018-06-08T13:32:56.195Z,2345
2018-06-08T13:33:57.819Z,3178
2018-06-08T13:34:59.454Z,3667
2018-06-08T13:36:01.088Z,3712
2018-06-08T13:37:02.718Z,3898
2018-06-08T13:38:04.358Z,4449
2018-06-08T13:39:05.997Z,3133
2018-06-08T13:40:07.625Z,4432
2018-06-08T13:41:09.262Z,4578
2018-06-08T13:42:10.892Z,4736
2018-06-08T13:43:12.524Z,4719
2018-06-08T13:44:14.156Z,4758
2018-06-08T13:45:15.804Z,3943
2018-06-08T13:46:17.416Z,4539
2018-06-08T13:47:19.050Z,4831
2018-06-08T13:48:20.690Z,5186
2018-06-08T13:49:22.325Z,3408
2018-06-08T13:50:23.961Z,4753
2018-06-08T13:51:25.590Z,3712
2018-06-08T13:52:27.236Z,2953
2018-06-08T13:53:28.859Z,2812
2018-06-08T13:54:30.496Z,3583
2018-06-08T13:55:32.128Z,5028
2018-06-08T13:56:33.767Z,5101
2018-06-08T13:57:35.404Z,3009
2018-06-08T13:58:37.031Z,2716
2018-06-08T13:59:38.669Z,2401
2018-06-08T14:00:40.299Z,2317
2018-06-08T14:01:41.932Z,2317
2018-06-08T14:02:43.569Z,2317
2018-06-08T14:03:45.200Z,2199
2018-06-08T14:04:46.842Z,2553
2018-06-08T14:05:48.472Z,2795
2018-06-08T14:06:50.109Z,3358
2018-06-08T14:07:51.744Z,3774
2018-06-08T14:08:53.375Z,3937
2018-06-08T14:09:55.042Z,4066
2018-06-08T14:10:56.645Z,4066
2018-06-08T14:11:58.321Z,4218
2018-06-08T14:12:59.918Z,3571
2018-06-08T14:14:01.564Z,3296
2018-06-08T14:15:03.188Z,4291
2018-06-08T14:16:04.822Z,3695
2018-06-08T14:17:06.454Z,4370